< Cyclone 201009 2010 Season Cyclone 201012 >
Cyclone 201011 (Paul)
General InformationTrack Information on Google MapsDetailed Wind InformationList of All Images || ResourceGoogle EarthGE AnimationAtom FeedGeoJSON
Detalied Best Track (Time Zone = UTC)
Year Month Day Hour Lat. Long. Pressure (hPa) Wind (kt) Class Image Chart
2010 3 24 12 -8.4 138.0 1006 15 2 Image --
2010 3 24 18 -8.7 137.1 1004 15 2 Image --
2010 3 25 00 -9.0 136.5 1007 20 2 Image --
2010 3 25 06 -9.1 136.0 1004 20 2 Image --
2010 3 25 12 -9.2 135.6 1006 20 2 Image --
2010 3 25 18 -9.3 135.3 1004 20 2 Image --
2010 3 26 00 -9.3 135.1 1005 20 2 Image --
2010 3 26 06 -9.8 135.2 1002 25 2 Image --
2010 3 26 12 -10.2 135.5 1004 25 2 Image --
2010 3 26 18 -10.4 135.9 1003 25 2 Image --
2010 3 27 00 -10.6 136.4 1004 25 2 Image --
2010 3 27 03 -10.9 136.4 1000.67 28.3333 0 Image --
2010 3 27 06 -11.2 136.5 999 30 2 Image --
2010 3 27 09 -11.5 136.8 1000 30 0 Image --
2010 3 27 12 -12.2 136.9 1001 30 2 Image --
2010 3 27 15 -12.5 136.6 998.5 32.5 0 Image --
2010 3 27 18 -12.6 136.5 996 35 3 Image --
2010 3 27 21 -12.8 136.6 995.667 36.6667 0 Image --
2010 3 27 23 -12.9 136.7 995.333 38.3333 0 Image --
2010 3 28 00 -13.0 136.5 995 40 3 Image --
2010 3 28 03 -12.8 136.5 993 40 0 Image --
2010 3 28 04 -12.9 136.7 992 40 0 Image --
2010 3 28 05 -13.0 136.6 991 40 0 Image --
2010 3 28 06 -13.0 136.6 990 40 3 Image --
2010 3 28 07 -12.9 136.6 989 42.5 0 Image --
2010 3 28 09 -12.9 136.5 988 45 0 Image --
2010 3 28 12 -12.8 136.5 986 50 4 Image --
2010 3 28 13 -12.8 136.5 985.333 50 0 Image --
2010 3 28 15 -12.8 136.6 984.667 50 0 Image --
2010 3 28 18 -13.0 136.6 984 50 4 Image --
2010 3 28 21 -13.1 136.6 981.5 55 0 Image --
2010 3 29 00 -13.1 136.4 979 60 4 Image --
2010 3 29 03 -13.1 136.4 975 65 5 Image --
2010 3 29 06 -13.2 136.3 972 65 5 Image --
2010 3 29 09 -13.3 136.1 973 65 5 Image --
2010 3 29 12 -13.2 135.9 971 70 5 Image --
2010 3 29 15 -13.1 135.7 983 55 4 Image --
2010 3 29 18 -13.0 135.7 988 45 3 Image --
2010 3 29 21 -13.0 135.5 995 35 3 Image --
2010 3 30 00 -13.1 135.4 995 30 2 Image --
2010 3 30 03 -13.1 135.2 996 30 2 Image --
2010 3 30 06 -13.1 135.0 995 30 2 Image --
2010 3 30 12 -13.2 135.0 995 30 2 Image --
2010 3 30 18 -13.4 135.0 996 30 2 Image --
2010 3 31 00 -13.8 135.3 998 30 2 Image --
2010 3 31 06 -14.0 135.8 996 30 2 Image --
2010 3 31 12 -14.0 136.1 998 30 2 Image --
2010 3 31 18 -14.1 136.5 998 30 2 Image --
2010 4 1 00 -14.6 136.8 998 30 2 Image --
2010 4 1 06 -15.2 137.2 999 30 2 Image --
2010 4 1 12 -16.0 137.9 998 30 2 Image --
2010 4 1 18 -16.2 138.3 999 30 2 Image --
2010 4 2 00 -16.4 138.2 1000 25 2 Image --
2010 4 2 06 -16.6 137.8 1001 25 2 Image --
2010 4 2 12 -16.7 137.5 1003 20 2 Image --
< Cyclone 201009 2010 Season Cyclone 201012 >

Help